createdAt,value
2019-05-21T00:01:39.514Z,3.62
2019-05-21T00:03:45.943Z,4.40
2019-05-21T00:05:52.386Z,4.05
2019-05-21T00:07:58.859Z,3.85
2019-05-21T00:10:08.537Z,3.45
2019-05-21T00:12:15.067Z,3.98
2019-05-21T00:14:21.473Z,4.12
2019-05-21T00:16:27.887Z,4.15
2019-05-21T00:18:34.417Z,4.03
2019-05-21T00:20:40.902Z,4.03
2019-05-21T00:22:47.311Z,4.10
2019-05-21T00:24:53.845Z,4.22
2019-05-21T00:27:00.368Z,4.40
2019-05-21T00:30:01.546Z,3.90
2019-05-21T00:33:03.455Z,3.95
2019-05-21T00:36:05.799Z,4.50
2019-05-21T00:39:06.766Z,4.10
2019-05-21T00:42:00.527Z,4.00
2019-05-21T00:44:07.208Z,4.47
2019-05-21T00:46:13.799Z,3.95
2019-05-21T00:48:20.240Z,4.17
2019-05-21T00:50:26.726Z,4.22
2019-05-21T00:52:33.118Z,4.45
2019-05-21T00:54:39.655Z,4.35
2019-05-21T00:56:46.153Z,4.15
2019-05-21T00:58:52.596Z,4.37
2019-05-21T01:00:59.032Z,5.20
2019-05-21T01:03:05.485Z,5.15
2019-05-21T01:05:12.026Z,4.10
2019-05-21T01:07:18.505Z,4.42
2019-05-21T01:09:25.058Z,4.70
2019-05-21T01:11:31.487Z,5.05
2019-05-21T01:13:37.904Z,4.20
2019-05-21T01:15:44.671Z,5.78
2019-05-21T01:17:51.167Z,4.70
2019-05-21T01:19:57.648Z,4.15
2019-05-21T01:22:04.134Z,4.65
2019-05-21T01:24:10.712Z,4.28
2019-05-21T01:26:17.206Z,4.55
2019-05-21T01:28:23.700Z,5.10
2019-05-21T01:30:30.119Z,4.37
2019-05-21T01:32:36.493Z,4.65
2019-05-21T01:34:42.970Z,4.80
2019-05-21T01:36:49.397Z,4.55
2019-05-21T01:38:55.777Z,4.50
2019-05-21T01:41:02.244Z,5.00
2019-05-21T01:43:08.734Z,4.85
2019-05-21T01:45:15.305Z,4.22
2019-05-21T01:47:21.727Z,4.87
2019-05-21T01:49:28.144Z,4.25
2019-05-21T01:51:34.554Z,4.72
2019-05-21T01:53:40.996Z,4.37
2019-05-21T01:55:47.418Z,5.25
2019-05-21T01:57:53.830Z,4.50
2019-05-21T02:00:00.207Z,5.17
2019-05-21T02:02:06.654Z,4.25
2019-05-21T02:04:13.139Z,4.80
2019-05-21T02:06:19.823Z,5.25
2019-05-21T02:08:26.262Z,5.15
2019-05-21T02:10:32.811Z,4.65
2019-05-21T02:12:39.183Z,4.85
2019-05-21T02:14:45.618Z,6.10
2019-05-21T02:16:52.040Z,4.80
2019-05-21T02:18:58.451Z,5.55
2019-05-21T02:21:04.982Z,5.40
2019-05-21T02:23:11.373Z,4.95
2019-05-21T02:25:18.666Z,4.80
2019-05-21T02:27:25.173Z,4.97
2019-05-21T02:29:32.663Z,4.87
2019-05-21T02:31:39.191Z,4.25
2019-05-21T02:33:45.612Z,5.00
2019-05-21T02:35:54.578Z,4.25
2019-05-21T02:38:00.153Z,4.37
2019-05-21T02:40:08.031Z,4.80
2019-05-21T02:42:14.473Z,4.35
2019-05-21T02:44:20.906Z,4.65
2019-05-21T02:46:27.418Z,4.33
2019-05-21T02:48:33.810Z,4.92
2019-05-21T02:50:40.287Z,4.65
2019-05-21T02:52:46.721Z,4.92
2019-05-21T02:54:53.594Z,4.55
2019-05-21T02:56:59.994Z,4.67
2019-05-21T02:59:06.613Z,5.30
2019-05-21T03:01:17.726Z,4.75
2019-05-21T03:03:24.562Z,5.37
2019-05-21T03:05:31.089Z,4.33
2019-05-21T03:07:37.555Z,5.20
2019-05-21T03:09:43.998Z,4.72
2019-05-21T03:11:50.499Z,5.00
2019-05-21T03:13:57.003Z,4.78
2019-05-21T03:16:03.642Z,4.97
2019-05-21T03:18:10.411Z,5.55
2019-05-21T03:20:16.981Z,5.70
2019-05-21T03:22:23.492Z,4.92
2019-05-21T03:24:29.849Z,5.65
2019-05-21T03:26:36.360Z,6.83
2019-05-21T03:28:42.780Z,5.40
2019-05-21T03:30:49.299Z,4.67
2019-05-21T03:32:55.727Z,4.92
2019-05-21T03:35:02.381Z,5.70
2019-05-21T03:37:10.215Z,5.50
2019-05-21T03:39:19.478Z,6.12
2019-05-21T03:41:24.939Z,5.25
2019-05-21T03:43:32.847Z,5.40
2019-05-21T03:45:39.456Z,5.92
2019-05-21T03:47:47.423Z,5.92
2019-05-21T03:49:54.509Z,5.60
2019-05-21T03:52:00.901Z,6.05
2019-05-21T03:54:07.351Z,5.75
2019-05-21T03:56:13.940Z,5.62
2019-05-21T03:58:20.940Z,5.78
2019-05-21T04:00:27.501Z,4.78
2019-05-21T04:02:33.927Z,5.45
2019-05-21T04:04:41.605Z,6.47
2019-05-21T04:06:51.761Z,6.05
2019-05-21T04:08:56.089Z,5.83
2019-05-21T04:11:02.553Z,5.45
2019-05-21T04:13:09.437Z,5.15
2019-05-21T04:15:17.818Z,4.85
2019-05-21T04:17:28.647Z,5.17
2019-05-21T04:19:36.711Z,4.28
2019-05-21T04:21:43.121Z,5.10
2019-05-21T04:23:50.456Z,5.12
2019-05-21T04:25:59.979Z,4.62
2019-05-21T04:28:07.356Z,4.60
2019-05-21T04:30:16.932Z,4.45
2019-05-21T04:32:23.302Z,4.55
2019-05-21T04:34:29.726Z,4.10
2019-05-21T04:36:36.233Z,4.05
2019-05-21T04:38:42.648Z,4.33
2019-05-21T04:40:50.678Z,4.05
2019-05-21T04:43:01.438Z,4.25
2019-05-21T04:45:08.459Z,5.03
2019-05-21T04:47:15.636Z,4.90
2019-05-21T04:49:22.022Z,4.60
2019-05-21T04:51:28.466Z,4.45
2019-05-21T04:53:34.962Z,4.45
2019-05-21T04:55:41.426Z,4.10
2019-05-21T04:57:47.847Z,4.22
2019-05-21T04:59:54.248Z,5.05
2019-05-21T05:02:00.636Z,4.03
2019-05-21T05:04:08.038Z,5.08
2019-05-21T05:06:14.571Z,4.87
2019-05-21T05:08:22.500Z,4.40
2019-05-21T05:10:29.039Z,4.22
2019-05-21T05:12:36.535Z,4.17
2019-05-21T05:14:42.938Z,4.25
2019-05-21T05:16:49.447Z,4.62
2019-05-21T05:18:55.935Z,4.67
2019-05-21T05:21:02.295Z,4.70
2019-05-21T05:23:08.686Z,4.50
2019-05-21T05:25:16.677Z,4.45
2019-05-21T05:27:23.177Z,4.28
2019-05-21T05:29:29.596Z,4.25
2019-05-21T05:31:36.012Z,4.45
2019-05-21T05:33:42.440Z,3.95
2019-05-21T05:35:48.930Z,4.20
2019-05-21T05:37:55.349Z,4.00
2019-05-21T05:40:01.808Z,4.12
2019-05-21T05:42:08.344Z,4.55
2019-05-21T05:44:14.875Z,4.87
2019-05-21T05:46:21.236Z,4.50
2019-05-21T05:48:29.218Z,4.25
2019-05-21T05:50:37.294Z,4.28
2019-05-21T05:52:43.748Z,3.87
2019-05-21T05:54:50.225Z,4.75
2019-05-21T05:56:56.644Z,4.10
2019-05-21T05:59:03.146Z,3.87
2019-05-21T06:01:09.564Z,3.80
2019-05-21T06:03:15.994Z,3.45
2019-05-21T06:05:22.508Z,3.60
2019-05-21T06:07:28.948Z,3.90
2019-05-21T06:09:35.345Z,3.98
2019-05-21T06:11:41.755Z,3.25
2019-05-21T06:13:49.664Z,3.92
2019-05-21T06:15:57.117Z,3.57
2019-05-21T06:18:03.580Z,3.17
2019-05-21T06:20:10.897Z,3.45
2019-05-21T06:22:17.369Z,3.60
2019-05-21T06:24:23.880Z,3.05
2019-05-21T06:26:30.385Z,3.45
2019-05-21T06:28:36.805Z,3.10
2019-05-21T06:30:43.257Z,2.60
2019-05-21T06:32:49.669Z,2.50
2019-05-21T06:34:56.082Z,2.77
2019-05-21T06:37:03.637Z,3.30
2019-05-21T06:39:11.398Z,3.12
2019-05-21T06:41:17.910Z,3.08
2019-05-21T06:43:24.358Z,2.37
2019-05-21T06:45:30.848Z,2.47
2019-05-21T06:47:37.409Z,2.40
2019-05-21T06:49:43.843Z,2.40
2019-05-21T06:51:50.254Z,2.47
2019-05-21T06:53:56.728Z,2.50
2019-05-21T06:56:07.182Z,3.35
2019-05-21T06:58:11.166Z,2.75
2019-05-21T07:00:20.482Z,2.40
2019-05-21T07:02:26.923Z,2.50
2019-05-21T07:04:33.297Z,2.70
2019-05-21T07:06:39.715Z,2.10
2019-05-21T07:08:46.158Z,2.95
2019-05-21T07:10:52.549Z,2.80
2019-05-21T07:12:58.983Z,2.98
2019-05-21T07:15:09.319Z,2.67
2019-05-21T07:17:15.795Z,3.22
2019-05-21T07:19:22.388Z,2.87
2019-05-21T07:21:28.917Z,2.62
2019-05-21T07:23:35.314Z,3.30
2019-05-21T07:25:41.732Z,3.22
2019-05-21T07:27:48.131Z,3.40
2019-05-21T07:29:54.539Z,3.42
2019-05-21T07:32:00.959Z,3.40
2019-05-21T07:34:07.428Z,3.62
2019-05-21T07:36:13.989Z,4.28
2019-05-21T07:38:20.501Z,4.53
2019-05-21T07:40:26.921Z,3.80
2019-05-21T07:42:33.407Z,4.22
2019-05-21T07:44:39.851Z,4.75
2019-05-21T07:46:46.399Z,4.72
2019-05-21T07:48:52.891Z,5.00
2019-05-21T07:50:59.373Z,4.67
2019-05-21T07:53:07.382Z,4.72
2019-05-21T07:55:13.971Z,4.53
2019-05-21T07:57:20.450Z,4.72
2019-05-21T07:59:26.838Z,4.30
2019-05-21T08:01:33.305Z,5.80
2019-05-21T08:03:39.670Z,5.17
2019-05-21T08:05:47.161Z,5.42
2019-05-21T08:07:53.645Z,5.03
2019-05-21T08:10:00.040Z,4.75
2019-05-21T08:12:27.919Z,6.00
2019-05-21T08:14:14.860Z,6.00
2019-05-21T08:16:21.334Z,6.70
2019-05-21T08:18:27.723Z,6.30
2019-05-21T08:20:34.122Z,6.90
2019-05-21T08:22:40.513Z,7.20
2019-05-21T08:24:46.969Z,6.70
2019-05-21T08:26:53.359Z,7.22
2019-05-21T08:28:59.756Z,7.20
2019-05-21T08:31:06.301Z,6.87
2019-05-21T08:33:12.704Z,6.75
2019-05-21T08:35:19.083Z,7.60
2019-05-21T08:37:25.548Z,7.90
2019-05-21T08:39:31.987Z,7.62
2019-05-21T08:41:38.446Z,6.50
2019-05-21T08:43:45.191Z,7.80
2019-05-21T08:45:51.585Z,7.72
2019-05-21T08:47:58.183Z,8.03
2019-05-21T08:50:09.383Z,7.80
2019-05-21T08:52:15.773Z,7.70
2019-05-21T08:54:23.794Z,7.85
2019-05-21T08:56:30.988Z,8.28
2019-05-21T08:58:37.435Z,7.83
2019-05-21T09:00:43.888Z,9.08
2019-05-21T09:02:50.373Z,8.50
2019-05-21T09:04:56.908Z,8.75
2019-05-21T09:07:03.423Z,9.15
2019-05-21T09:09:09.822Z,8.38
2019-05-21T09:11:16.336Z,9.70
2019-05-21T09:13:22.697Z,8.33
2019-05-21T09:15:29.102Z,8.28
2019-05-21T09:17:35.501Z,9.78
2019-05-21T09:19:41.937Z,8.78
2019-05-21T09:21:48.432Z,9.35
2019-05-21T09:23:54.848Z,9.55
2019-05-21T09:26:01.301Z,11.38
2019-05-21T09:28:07.965Z,9.20
2019-05-21T09:30:15.448Z,10.45
2019-05-21T09:32:22.009Z,9.25
2019-05-21T09:34:28.488Z,9.80
2019-05-21T09:36:34.938Z,9.68
2019-05-21T09:38:41.371Z,10.50
2019-05-21T09:40:47.862Z,10.95
2019-05-21T09:42:54.376Z,10.32
2019-05-21T09:45:00.802Z,10.10
2019-05-21T09:47:07.261Z,10.58
2019-05-21T09:49:13.752Z,10.23
2019-05-21T09:51:21.942Z,10.48
2019-05-21T09:53:28.425Z,10.58
2019-05-21T09:55:34.942Z,11.05
2019-05-21T09:57:45.869Z,10.10
2019-05-21T09:59:53.968Z,10.65
2019-05-21T10:02:03.109Z,10.35
2019-05-21T10:04:09.546Z,10.70
2019-05-21T10:06:16.006Z,11.35
2019-05-21T10:08:22.477Z,10.95
2019-05-21T10:10:28.954Z,11.12
2019-05-21T10:12:35.433Z,11.25
2019-05-21T10:14:41.844Z,10.50
2019-05-21T10:16:48.300Z,10.68
2019-05-21T10:18:54.872Z,9.85
2019-05-21T10:21:01.334Z,10.55
2019-05-21T10:23:07.897Z,10.03
2019-05-21T10:25:16.013Z,9.53
2019-05-21T10:27:22.802Z,9.65
2019-05-21T10:29:29.248Z,9.33
2019-05-21T10:31:35.660Z,8.80
2019-05-21T10:33:42.086Z,10.25
2019-05-21T10:35:48.484Z,11.90
2019-05-21T10:37:55.642Z,9.45
2019-05-21T10:40:03.315Z,10.60
2019-05-21T10:42:09.892Z,9.38
2019-05-21T10:44:16.391Z,10.82
2019-05-21T10:46:22.908Z,10.13
2019-05-21T10:48:29.539Z,10.28
2019-05-21T10:50:36.071Z,9.23
2019-05-21T10:52:42.522Z,9.90
2019-05-21T10:54:49.014Z,8.93
2019-05-21T10:56:55.621Z,9.58
2019-05-21T10:59:02.071Z,8.93
2019-05-21T11:01:10.270Z,8.98
2019-05-21T11:03:24.574Z,8.90
2019-05-21T11:05:35.416Z,8.65
2019-05-21T11:07:43.296Z,8.88
2019-05-21T11:09:49.709Z,8.93
2019-05-21T11:11:56.148Z,8.35
2019-05-21T11:14:02.750Z,9.00
2019-05-21T11:16:09.279Z,9.30
2019-05-21T11:18:15.830Z,8.33
2019-05-21T11:20:22.487Z,8.58
2019-05-21T11:22:28.874Z,7.25
2019-05-21T11:24:35.306Z,8.20
2019-05-21T11:26:41.784Z,7.42
2019-05-21T11:28:48.212Z,7.87
2019-05-21T11:30:54.776Z,8.60
2019-05-21T11:33:01.265Z,8.03
2019-05-21T11:35:10.648Z,8.85
2019-05-21T11:37:17.103Z,7.87
2019-05-21T11:39:23.601Z,8.10
2019-05-21T11:41:30.124Z,7.12
2019-05-21T11:43:36.686Z,8.95
2019-05-21T11:45:43.469Z,7.85
2019-05-21T11:47:50.150Z,7.87
2019-05-21T11:49:56.625Z,7.87
2019-05-21T11:52:03.072Z,8.65
2019-05-21T11:54:09.595Z,8.03
2019-05-21T11:56:15.982Z,7.67
2019-05-21T11:58:22.520Z,8.73
2019-05-21T12:00:29.499Z,8.20
2019-05-21T12:02:35.873Z,8.38
2019-05-21T12:04:42.306Z,8.48
2019-05-21T12:06:49.746Z,8.00
2019-05-21T12:08:57.383Z,8.03
2019-05-21T12:11:04.017Z,14.00
2019-05-21T12:13:10.506Z,8.23
2019-05-21T12:15:17.418Z,8.40
2019-05-21T12:17:23.948Z,8.23
2019-05-21T12:19:30.369Z,8.15
2019-05-21T12:21:37.867Z,7.90
2019-05-21T12:23:44.410Z,7.65
2019-05-21T12:25:51.856Z,6.85
2019-05-21T12:27:58.315Z,8.48
2019-05-21T12:30:08.458Z,10.38
2019-05-21T12:32:14.906Z,6.80
2019-05-21T12:34:21.383Z,6.85
2019-05-21T12:36:27.898Z,5.67
2019-05-21T12:38:34.496Z,5.78
2019-05-21T12:40:40.901Z,5.60
2019-05-21T12:42:47.393Z,5.85
2019-05-21T12:44:54.296Z,6.28
2019-05-21T12:47:00.779Z,5.05
2019-05-21T12:49:07.290Z,6.00
2019-05-21T12:51:13.935Z,5.45
2019-05-21T12:53:20.616Z,5.80
2019-05-21T12:55:27.046Z,5.03
2019-05-21T12:57:33.576Z,5.45
2019-05-21T12:59:40.206Z,5.45
2019-05-21T13:01:46.572Z,6.60
2019-05-21T13:03:55.391Z,6.03
2019-05-21T13:06:02.284Z,5.35
2019-05-21T13:08:08.921Z,5.42
2019-05-21T13:10:15.875Z,5.62
2019-05-21T13:12:22.285Z,8.15
2019-05-21T13:14:28.791Z,7.03
2019-05-21T13:16:35.278Z,6.72
2019-05-21T13:18:41.797Z,5.87
2019-05-21T13:20:48.294Z,5.62
2019-05-21T13:22:54.773Z,5.78
2019-05-21T13:25:01.227Z,6.05
2019-05-21T13:27:09.052Z,6.03
2019-05-21T13:29:15.608Z,5.22
2019-05-21T13:31:22.416Z,6.67
2019-05-21T13:33:28.937Z,6.92
2019-05-21T13:35:35.459Z,5.08
2019-05-21T13:37:42.059Z,4.55
2019-05-21T13:39:50.432Z,4.70
2019-05-21T13:41:56.590Z,4.58
2019-05-21T13:44:04.430Z,4.35
2019-05-21T13:46:10.865Z,4.10
2019-05-21T13:48:17.426Z,4.70
2019-05-21T13:50:23.965Z,4.12
2019-05-21T13:52:30.394Z,4.15
2019-05-21T13:54:36.993Z,5.08
2019-05-21T13:56:43.439Z,5.15
2019-05-21T13:58:49.928Z,4.35
2019-05-21T14:00:56.524Z,4.70
2019-05-21T14:03:03.420Z,4.30
2019-05-21T14:05:12.284Z,5.08
2019-05-21T14:09:24.277Z,5.62
2019-05-21T14:11:30.908Z,6.03
2019-05-21T14:13:37.529Z,5.60
2019-05-21T14:15:44.008Z,5.90
2019-05-21T14:17:50.514Z,6.30
2019-05-21T14:19:56.927Z,5.70
2019-05-21T14:22:03.522Z,5.67
2019-05-21T14:24:10.113Z,5.95
2019-05-21T14:26:16.520Z,6.30
2019-05-21T14:28:22.999Z,6.00
2019-05-21T14:30:29.597Z,5.83
2019-05-21T14:32:36.019Z,4.60
2019-05-21T14:34:42.449Z,5.12
2019-05-21T14:36:48.897Z,5.20
2019-05-21T14:38:55.343Z,4.25
2019-05-21T14:41:01.724Z,4.50
2019-05-21T14:43:08.287Z,4.60
2019-05-21T14:45:15.903Z,4.33
2019-05-21T14:47:22.339Z,4.00
2019-05-21T14:49:28.744Z,4.08
2019-05-21T14:51:35.174Z,4.50
2019-05-21T14:53:41.571Z,4.80
2019-05-21T14:55:48.100Z,5.37
2019-05-21T14:57:54.526Z,5.15
2019-05-21T15:00:01.040Z,4.95
2019-05-21T15:02:07.805Z,5.60
2019-05-21T15:04:14.288Z,4.53
2019-05-21T15:06:20.775Z,3.90
2019-05-21T15:08:27.209Z,3.80
2019-05-21T15:10:47.266Z,3.40
2019-05-21T15:14:48.037Z,3.40
2019-05-21T15:16:54.599Z,2.75
2019-05-21T15:19:01.258Z,2.45
2019-05-21T15:21:09.424Z,2.20
2019-05-21T15:23:15.992Z,2.30
2019-05-21T15:25:22.579Z,1.98
2019-05-21T15:27:30.128Z,2.17
2019-05-21T15:29:36.593Z,1.80
2019-05-21T15:31:42.979Z,1.87
2019-05-21T15:33:49.539Z,2.00
2019-05-21T15:35:55.979Z,2.37
2019-05-21T15:38:02.472Z,2.17
2019-05-21T15:40:09.979Z,2.10
2019-05-21T15:42:16.758Z,2.50
2019-05-21T15:44:23.158Z,1.60
2019-05-21T15:46:45.505Z,2.00
2019-05-21T15:48:37.771Z,1.75
2019-05-21T15:50:44.335Z,1.15
2019-05-21T15:52:50.787Z,1.30
2019-05-21T15:54:57.218Z,1.00
2019-05-21T15:57:03.702Z,0.93
2019-05-21T15:59:12.991Z,0.95
2019-05-21T16:01:19.373Z,1.22
2019-05-21T16:03:25.890Z,0.90
2019-05-21T16:05:32.309Z,1.00
2019-05-21T16:07:38.798Z,1.05
2019-05-21T16:09:45.363Z,1.00
2019-05-21T16:11:51.785Z,1.10
2019-05-21T16:13:58.221Z,1.00
2019-05-21T16:16:04.979Z,1.20
2019-05-21T16:18:11.436Z,1.30
2019-05-21T16:20:19.368Z,1.10
2019-05-21T16:22:25.825Z,1.13
2019-05-21T16:24:32.743Z,1.00
2019-05-21T16:26:39.265Z,1.10
2019-05-21T16:28:45.679Z,0.90
2019-05-21T16:30:52.077Z,0.70
2019-05-21T16:32:59.787Z,0.70
2019-05-21T16:35:10.256Z,0.90
2019-05-21T16:37:16.977Z,1.30
2019-05-21T16:39:25.283Z,1.32
2019-05-21T16:41:44.244Z,0.72
2019-05-21T16:43:40.110Z,0.90
2019-05-21T16:45:46.522Z,0.80
2019-05-21T16:47:52.946Z,0.70
2019-05-21T16:49:59.547Z,0.88
2019-05-21T16:52:07.102Z,1.00
2019-05-21T16:54:13.548Z,0.90
2019-05-21T16:56:20.029Z,1.00
2019-05-21T16:58:26.462Z,1.00
2019-05-21T17:00:33.491Z,1.25
2019-05-21T17:02:39.986Z,0.70
2019-05-21T17:04:46.404Z,1.10
2019-05-21T17:06:52.796Z,0.85
2019-05-21T17:08:59.175Z,1.00
2019-05-21T17:11:05.697Z,1.00
2019-05-21T17:13:12.701Z,0.98
2019-05-21T17:15:19.413Z,0.98
2019-05-21T17:17:25.878Z,1.15
2019-05-21T17:19:32.385Z,1.15
2019-05-21T17:21:39.046Z,1.10
2019-05-21T17:23:45.419Z,1.22
2019-05-21T17:25:51.911Z,1.10
2019-05-21T17:27:58.318Z,1.40
2019-05-21T17:30:08.926Z,1.40
2019-05-21T17:32:15.352Z,1.20
2019-05-21T17:34:21.803Z,1.00
2019-05-21T17:36:28.274Z,1.20
2019-05-21T17:38:35.068Z,1.00
2019-05-21T17:40:41.725Z,1.10
2019-05-21T17:42:48.662Z,1.00
2019-05-21T17:44:56.258Z,0.90
2019-05-21T17:47:02.756Z,0.80
2019-05-21T17:49:09.298Z,1.10
2019-05-21T17:51:15.705Z,1.47
2019-05-21T17:53:22.144Z,1.30
2019-05-21T17:55:28.790Z,1.40
2019-05-21T17:57:36.058Z,2.70
2019-05-21T17:59:42.592Z,1.50
2019-05-21T18:01:50.728Z,2.10
2019-05-21T18:03:57.231Z,1.85
2019-05-21T18:06:05.014Z,1.60
2019-05-21T18:08:12.025Z,1.95
2019-05-21T18:10:18.822Z,3.52
2019-05-21T18:12:32.162Z,1.77
2019-05-21T18:14:36.135Z,4.20
2019-05-21T18:16:43.012Z,4.15
2019-05-21T18:18:49.996Z,3.55
2019-05-21T18:20:57.150Z,2.80
2019-05-21T18:23:03.907Z,2.67
2019-05-21T18:25:11.587Z,1.60
2019-05-21T18:27:20.322Z,1.50
2019-05-21T18:29:26.788Z,1.90
2019-05-21T18:31:33.350Z,1.50
2019-05-21T18:33:39.819Z,1.47
2019-05-21T18:35:46.368Z,1.60
2019-05-21T18:37:53.104Z,1.15
2019-05-21T18:39:59.747Z,1.05
2019-05-21T18:42:21.267Z,1.00
2019-05-21T18:44:16.627Z,1.10
2019-05-21T18:46:23.211Z,1.10
2019-05-21T18:48:30.631Z,1.75
2019-05-21T18:50:37.463Z,1.40
2019-05-21T18:52:45.243Z,1.33
2019-05-21T18:54:52.985Z,1.10
2019-05-21T18:56:59.556Z,2.25
2019-05-21T18:59:06.149Z,1.20
2019-05-21T19:01:12.951Z,1.30
2019-05-21T19:03:25.229Z,1.27
2019-05-21T19:05:27.858Z,1.40
2019-05-21T19:07:35.864Z,1.55
2019-05-21T19:09:42.568Z,1.50
2019-05-21T19:11:49.035Z,1.40
2019-05-21T19:13:55.556Z,1.82
2019-05-21T19:16:02.126Z,1.70
2019-05-21T19:18:08.728Z,1.70
2019-05-21T19:20:16.355Z,1.82
2019-05-21T19:22:23.197Z,1.70
2019-05-21T19:24:30.674Z,2.10
2019-05-21T19:26:37.177Z,2.00
2019-05-21T19:28:43.669Z,1.52
2019-05-21T19:30:50.307Z,1.80
2019-05-21T19:32:56.674Z,1.45
2019-05-21T19:35:03.647Z,1.98
2019-05-21T19:37:10.942Z,1.67
2019-05-21T19:39:17.559Z,2.00
2019-05-21T19:41:24.351Z,1.95
2019-05-21T19:43:32.032Z,1.98
2019-05-21T19:45:38.893Z,2.33
2019-05-21T19:47:45.383Z,2.30
2019-05-21T19:49:51.829Z,2.30
2019-05-21T19:51:58.337Z,2.33
2019-05-21T19:54:05.076Z,2.27
2019-05-21T19:56:11.619Z,2.08
2019-05-21T19:58:18.538Z,2.50
2019-05-21T20:00:27.868Z,2.05
2019-05-21T20:02:35.048Z,1.92
2019-05-21T20:04:42.573Z,2.00
2019-05-21T20:06:49.351Z,1.80
2019-05-21T20:08:56.412Z,1.65
2019-05-21T20:11:04.049Z,1.72
2019-05-21T20:13:10.583Z,2.02
2019-05-21T20:15:18.537Z,2.00
2019-05-21T20:17:26.202Z,2.22
2019-05-21T20:19:33.051Z,2.00
2019-05-21T20:21:39.673Z,1.90
2019-05-21T20:23:47.278Z,1.70
2019-05-21T20:25:56.853Z,2.40
2019-05-21T20:28:03.091Z,2.00
2019-05-21T20:30:14.815Z,1.98
2019-05-21T20:32:23.207Z,2.00
2019-05-21T20:34:30.203Z,1.80
2019-05-21T20:36:36.810Z,2.22
2019-05-21T20:38:43.577Z,1.70
2019-05-21T20:40:52.447Z,2.10
2019-05-21T20:43:01.379Z,2.05
2019-05-21T20:45:11.613Z,2.20
2019-05-21T20:47:18.986Z,2.10
2019-05-21T20:49:25.755Z,2.20
2019-05-21T20:51:32.783Z,2.30
2019-05-21T20:53:39.379Z,2.40
2019-05-21T20:55:46.020Z,1.95
2019-05-21T20:57:53.862Z,2.00
2019-05-21T21:00:03.352Z,2.20
2019-05-21T21:02:13.145Z,2.17
2019-05-21T21:04:19.652Z,2.27
2019-05-21T21:06:35.294Z,1.92
2019-05-21T21:08:38.968Z,2.37
2019-05-21T21:10:45.571Z,2.50
2019-05-21T21:12:52.850Z,2.45
2019-05-21T21:14:59.434Z,2.60
2019-05-21T21:17:06.269Z,2.70
2019-05-21T21:19:12.945Z,2.83
2019-05-21T21:21:20.632Z,2.65
2019-05-21T21:23:29.263Z,2.22
2019-05-21T21:25:35.908Z,1.85
2019-05-21T21:27:42.643Z,2.05
2019-05-21T21:29:49.385Z,2.58
2019-05-21T21:31:56.282Z,2.10
2019-05-21T21:34:03.903Z,1.90
2019-05-21T21:36:10.362Z,2.25
2019-05-21T21:38:18.600Z,1.80
2019-05-21T21:40:25.284Z,1.83
2019-05-21T21:42:32.330Z,2.20
2019-05-21T21:44:39.420Z,2.08
2019-05-21T21:46:45.975Z,2.02
2019-05-21T21:48:54.133Z,1.62
2019-05-21T21:51:01.070Z,1.80
2019-05-21T21:53:07.854Z,1.98
2019-05-21T21:55:14.885Z,1.85
2019-05-21T21:57:21.394Z,1.90
2019-05-21T21:59:27.929Z,1.72
2019-05-21T22:01:54.572Z,1.82
2019-05-21T22:04:04.798Z,2.10
2019-05-21T22:06:14.127Z,2.20
2019-05-21T22:08:21.027Z,1.82
2019-05-21T22:10:28.054Z,1.92
2019-05-21T22:12:34.607Z,2.25
2019-05-21T22:14:50.494Z,1.98
2019-05-21T22:16:51.885Z,2.33
2019-05-21T22:18:59.250Z,2.12
2019-05-21T22:21:05.772Z,2.25
2019-05-21T22:23:12.806Z,2.20
2019-05-21T22:25:20.302Z,2.35
2019-05-21T22:27:27.001Z,2.40
2019-05-21T22:29:33.566Z,2.10
2019-05-21T22:31:41.500Z,2.05
2019-05-21T22:33:47.909Z,2.02
2019-05-21T22:35:54.552Z,2.20
2019-05-21T22:38:01.025Z,1.85
2019-05-21T22:40:08.392Z,1.87
2019-05-21T22:42:15.923Z,2.20
2019-05-21T22:44:22.420Z,2.08
2019-05-21T22:46:28.972Z,2.02
2019-05-21T22:48:35.587Z,1.90
2019-05-21T22:50:42.144Z,1.90
2019-05-21T22:52:48.652Z,2.10
2019-05-21T22:54:55.365Z,1.90
2019-05-21T22:57:01.815Z,2.05
2019-05-21T22:59:08.417Z,1.98
2019-05-21T23:01:16.016Z,2.15
2019-05-21T23:03:22.886Z,2.20
2019-05-21T23:05:29.383Z,2.20
2019-05-21T23:07:36.097Z,2.17
2019-05-21T23:09:42.611Z,2.27
2019-05-21T23:11:49.073Z,1.82
2019-05-21T23:13:55.586Z,2.58
2019-05-21T23:16:05.057Z,2.30
2019-05-21T23:18:29.812Z,2.45
2019-05-21T23:20:47.288Z,2.22
2019-05-21T23:22:58.626Z,2.20
2019-05-21T23:25:10.633Z,1.90
2019-05-21T23:27:17.737Z,2.62
2019-05-21T23:29:24.639Z,2.08
2019-05-21T23:31:32.326Z,2.00
2019-05-21T23:33:38.893Z,2.20
2019-05-21T23:35:45.979Z,1.92
2019-05-21T23:37:53.260Z,2.12
2019-05-21T23:40:00.855Z,2.33
2019-05-21T23:42:08.801Z,2.00
2019-05-21T23:44:15.777Z,2.10
2019-05-21T23:46:23.127Z,2.15
2019-05-21T23:48:30.411Z,2.00
2019-05-21T23:50:37.009Z,2.17
2019-05-21T23:52:44.562Z,1.95
2019-05-21T23:54:51.509Z,2.10
2019-05-21T23:56:59.843Z,1.87
2019-05-21T23:59:08.046Z,1.87
